sensor_id;sensor_type;location;lat;lon;timestamp;pressure;altitude;pressure_sealevel;temperature;humidity
10638;BME280;47007;49.252;8.904;2023-03-12T00:00:00;99519.50;;;-0.85;100.00
10638;BME280;47007;49.252;8.904;2023-03-12T00:00:42;99483.28;;;-1.11;100.00
10638;BME280;47007;49.252;8.904;2023-03-12T00:01:25;99519.38;;;-0.84;100.00
10638;BME280;47007;49.252;8.904;2023-03-12T00:02:14;99521.84;;;-0.82;100.00
10638;BME280;47007;49.252;8.904;2023-03-12T00:02:55;99508.41;;;-0.87;100.00
10638;BME280;47007;49.252;8.904;2023-03-12T00:03:37;99499.38;;;-0.94;100.00
10638;BME280;47007;49.252;8.904;2023-03-12T00:04:20;99515.00;;;-0.83;100.00
10638;BME280;47007;49.252;8.904;2023-03-12T00:05:02;99515.22;;;-0.86;100.00
10638;BME280;47007;49.252;8.904;2023-03-12T00:05:44;99512.50;;;-0.85;100.00
10638;BME280;47007;49.252;8.904;2023-03-12T00:06:26;99510.84;;;-0.86;100.00
10638;BME280;47007;49.252;8.904;2023-03-12T00:07:08;99513.34;;;-0.84;100.00
10638;BME280;47007;49.252;8.904;2023-03-12T00:07:50;99508.41;;;-0.87;100.00
10638;BME280;47007;49.252;8.904;2023-03-12T00:08:32;99509.78;;;-0.83;100.00
10638;BME280;47007;49.252;8.904;2023-03-12T00:09:14;99491.59;;;-0.94;100.00
10638;BME280;47007;49.252;8.904;2023-03-12T00:09:55;99500.81;;;-0.90;100.00
10638;BME280;47007;49.252;8.904;2023-03-12T00:10:38;99504.47;;;-0.82;100.00
10638;BME280;47007;49.252;8.904;2023-03-12T00:11:20;99518.44;;;-0.83;100.00
10638;BME280;47007;49.252;8.904;2023-03-12T00:12:02;99510.84;;;-0.86;100.00
10638;BME280;47007;49.252;8.904;2023-03-12T00:12:44;99517.03;;;-0.87;100.00
10638;BME280;47007;49.252;8.904;2023-03-12T00:13:26;99511.94;;;-0.88;100.00
10638;BME280;47007;49.252;8.904;2023-03-12T00:14:07;99517.16;;;-0.88;100.00
10638;BME280;47007;49.252;8.904;2023-03-12T00:14:49;99514.66;;;-0.90;100.00
10638;BME280;47007;49.252;8.904;2023-03-12T00:15:35;99505.66;;;-0.97;100.00
10638;BME280;47007;49.252;8.904;2023-03-12T00:16:17;99493.34;;;-1.06;100.00
10638;BME280;47007;49.252;8.904;2023-03-12T00:16:59;99515.72;;;-1.03;100.00
10638;BME280;47007;49.252;8.904;2023-03-12T00:17:40;99498.44;;;-1.16;100.00
10638;BME280;47007;49.252;8.904;2023-03-12T00:18:22;99512.16;;;-1.14;100.00
10638;BME280;47007;49.252;8.904;2023-03-12T00:19:03;99517.59;;;-1.17;100.00
10638;BME280;47007;49.252;8.904;2023-03-12T00:19:45;99509.28;;;-1.22;100.00
10638;BME280;47007;49.252;8.904;2023-03-12T00:20:27;99506.22;;;-1.27;100.00
10638;BME280;47007;49.252;8.904;2023-03-12T00:21:09;99505.75;;;-1.21;100.00
10638;BME280;47007;49.252;8.904;2023-03-12T00:21:51;99454.78;;;-1.57;100.00
10638;BME280;47007;49.252;8.904;2023-03-12T00:22:33;99503.53;;;-1.25;100.00
10638;BME280;47007;49.252;8.904;2023-03-12T00:23:15;99483.28;;;-1.33;100.00
10638;BME280;47007;49.252;8.904;2023-03-12T00:23:56;99500.09;;;-1.26;100.00
10638;BME280;47007;49.252;8.904;2023-03-12T00:24:38;99510.00;;;-1.20;100.00
10638;BME280;47007;49.252;8.904;2023-03-12T00:25:20;99511.91;;;-1.22;100.00
10638;BME280;47007;49.252;8.904;2023-03-12T00:26:04;99503.25;;;-1.22;100.00
10638;BME280;47007;49.252;8.904;2023-03-12T00:26:46;99489.91;;;-1.29;100.00
10638;BME280;47007;49.252;8.904;2023-03-12T00:27:28;99504.69;;;-1.18;100.00
10638;BME280;47007;49.252;8.904;2023-03-12T00:28:10;99487.44;;;-1.30;100.00
10638;BME280;47007;49.252;8.904;2023-03-12T00:28:51;99507.19;;;-1.17;100.00
10638;BME280;47007;49.252;8.904;2023-03-12T00:29:34;99488.03;;;-1.27;100.00
10638;BME280;47007;49.252;8.904;2023-03-12T00:30:16;99467.91;;;-1.36;100.00
10638;BME280;47007;49.252;8.904;2023-03-12T00:30:57;99500.94;;;-1.14;100.00
10638;BME280;47007;49.252;8.904;2023-03-12T00:31:39;99498.22;;;-1.13;100.00
10638;BME280;47007;49.252;8.904;2023-03-12T00:32:21;99423.97;;;-1.61;100.00
10638;BME280;47007;49.252;8.904;2023-03-12T00:33:03;99489.69;;;-1.15;100.00
10638;BME280;47007;49.252;8.904;2023-03-12T00:33:45;99509.78;;;-1.05;100.00
10638;BME280;47007;49.252;8.904;2023-03-12T00:34:29;99507.91;;;-1.03;100.00
10638;BME280;47007;49.252;8.904;2023-03-12T00:35:11;99515.59;;;-1.13;100.00
10638;BME280;47007;49.252;8.904;2023-03-12T00:35:54;99508.25;;;-1.08;100.00
10638;BME280;47007;49.252;8.904;2023-03-12T00:36:36;99495.84;;;-1.16;100.00
10638;BME280;47007;49.252;8.904;2023-03-12T00:37:18;99490.16;;;-1.21;100.00
10638;BME280;47007;49.252;8.904;2023-03-12T00:38:00;99349.59;;;-2.08;100.00
10638;BME280;47007;49.252;8.904;2023-03-12T00:38:42;99489.94;;;-1.18;100.00
10638;BME280;47007;49.252;8.904;2023-03-12T00:39:24;99477.53;;;-1.25;100.00
10638;BME280;47007;49.252;8.904;2023-03-12T00:40:06;99497.03;;;-1.09;100.00
10638;BME280;47007;49.252;8.904;2023-03-12T00:40:50;99500.44;;;-1.08;100.00
10638;BME280;47007;49.252;8.904;2023-03-12T00:41:31;99499.63;;;-1.09;100.00
10638;BME280;47007;49.252;8.904;2023-03-12T00:42:13;99493.13;;;-1.14;100.00
10638;BME280;47007;49.252;8.904;2023-03-12T00:42:55;99464.63;;;-1.27;100.00
10638;BME280;47007;49.252;8.904;2023-03-12T00:43:37;99497.72;;;-1.06;100.00
10638;BME280;47007;49.252;8.904;2023-03-12T00:44:18;99488.88;;;-1.15;100.00
10638;BME280;47007;49.252;8.904;2023-03-12T00:45:00;99500.34;;;-1.06;100.00
10638;BME280;47007;49.252;8.904;2023-03-12T00:45:42;99504.72;;;-1.07;100.00
10638;BME280;47007;49.252;8.904;2023-03-12T00:46:24;99504.72;;;-1.07;100.00
10638;BME280;47007;49.252;8.904;2023-03-12T00:47:06;99498.69;;;-1.08;100.00
10638;BME280;47007;49.252;8.904;2023-03-12T00:47:48;99469.59;;;-1.24;100.00
10638;BME280;47007;49.252;8.904;2023-03-12T00:48:30;99514.16;;;-1.06;100.00
10638;BME280;47007;49.252;8.904;2023-03-12T00:49:11;99497.03;;;-1.09;100.00
10638;BME280;47007;49.252;8.904;2023-03-12T00:49:53;99495.34;;;-1.10;100.00
10638;BME280;47007;49.252;8.904;2023-03-12T00:50:35;99494.31;;;-1.07;100.00
10638;BME280;47007;49.252;8.904;2023-03-12T00:51:17;99486.28;;;-1.15;100.00
10638;BME280;47007;49.252;8.904;2023-03-12T00:51:59;99497.13;;;-1.10;100.00
10638;BME280;47007;49.252;8.904;2023-03-12T00:52:40;99493.03;;;-1.13;100.00
10638;BME280;47007;49.252;8.904;2023-03-12T00:53:22;99501.75;;;-1.14;100.00
10638;BME280;47007;49.252;8.904;2023-03-12T00:54:04;99492.63;;;-1.19;100.00
10638;BME280;47007;49.252;8.904;2023-03-12T00:54:46;99498.44;;;-1.16;100.00
10638;BME280;47007;49.252;8.904;2023-03-12T00:55:28;99465.47;;;-1.37;100.00
10638;BME280;47007;49.252;8.904;2023-03-12T00:56:10;99507.31;;;-1.18;100.00
10638;BME280;47007;49.252;8.904;2023-03-12T00:56:51;99481.28;;;-1.29;100.00
10638;BME280;47007;49.252;8.904;2023-03-12T00:57:33;99498.66;;;-1.19;100.00
10638;BME280;47007;49.252;8.904;2023-03-12T00:58:15;99406.44;;;-1.70;100.00
10638;BME280;47007;49.252;8.904;2023-03-12T00:58:56;99495.97;;;-1.17;100.00
10638;BME280;47007;49.252;8.904;2023-03-12T00:59:38;99495.84;;;-1.16;100.00
10638;BME280;47007;49.252;8.904;2023-03-12T01:00:22;99489.69;;;-1.15;100.00
10638;BME280;47007;49.252;8.904;2023-03-12T01:01:04;99487.22;;;-1.16;100.00
10638;BME280;47007;49.252;8.904;2023-03-12T01:01:46;99497.84;;;-1.19;100.00
10638;BME280;47007;49.252;8.904;2023-03-12T01:02:28;99480.34;;;-1.28;100.00
10638;BME280;47007;49.252;8.904;2023-03-12T01:03:10;99488.16;;;-1.28;100.00
10638;BME280;47007;49.252;8.904;2023-03-12T01:03:53;99463.31;;;-1.43;100.00
10638;BME280;47007;49.252;8.904;2023-03-12T01:04:35;99461.75;;;-1.46;100.00
10638;BME280;47007;49.252;8.904;2023-03-12T01:05:17;99495.22;;;-1.30;100.00
10638;BME280;47007;49.252;8.904;2023-03-12T01:05:59;99492.75;;;-1.32;100.00
10638;BME280;47007;49.252;8.904;2023-03-12T01:06:40;99448.50;;;-1.65;100.00
10638;BME280;47007;49.252;8.904;2023-03-12T01:07:22;99486.81;;;-1.34;100.00
10638;BME280;47007;49.252;8.904;2023-03-12T01:08:04;99497.59;;;-1.38;100.00
10638;BME280;47007;49.252;8.904;2023-03-12T01:08:46;99490.97;;;-1.42;100.00
10638;BME280;47007;49.252;8.904;2023-03-12T01:09:27;99488.56;;;-1.46;100.00
10638;BME280;47007;49.252;8.904;2023-03-12T01:10:13;99474.03;;;-1.59;100.00
10638;BME280;47007;49.252;8.904;2023-03-12T01:10:55;99499.81;;;-1.45;100.00
10638;BME280;47007;49.252;8.904;2023-03-12T01:11:37;99489.88;;;-1.51;100.00
10638;BME280;47007;49.252;8.904;2023-03-12T01:12:19;99504.56;;;-1.39;100.00
10638;BME280;47007;49.252;8.904;2023-03-12T01:13:01;99502.44;;;-1.34;100.00
10638;BME280;47007;49.252;8.904;2023-03-12T01:13:43;99500.66;;;-1.33;100.00
10638;BME280;47007;49.252;8.904;2023-03-12T01:14:25;99488.84;;;-1.37;100.00
10638;BME280;47007;49.252;8.904;2023-03-12T01:15:07;99503.25;;;-1.22;100.00
10638;BME280;47007;49.252;8.904;2023-03-12T01:15:48;99464.34;;;-1.46;100.00
10638;BME280;47007;49.252;8.904;2023-03-12T01:16:30;99504.69;;;-1.18;100.00
10638;BME280;47007;49.252;8.904;2023-03-12T01:17:13;99477.25;;;-1.33;100.00
10638;BME280;47007;49.252;8.904;2023-03-12T01:17:54;99503.66;;;-1.16;100.00
10638;BME280;47007;49.252;8.904;2023-03-12T01:18:36;99425.84;;;-1.63;100.00
10638;BME280;47007;49.252;8.904;2023-03-12T01:19:18;99408.47;;;-1.74;100.00
10638;BME280;47007;49.252;8.904;2023-03-12T01:19:59;99503.88;;;-1.19;100.00
10638;BME280;47007;49.252;8.904;2023-03-12T01:20:41;99477.97;;;-1.31;100.00
10638;BME280;47007;49.252;8.904;2023-03-12T01:21:23;99491.09;;;-1.22;100.00
10638;BME280;47007;49.252;8.904;2023-03-12T01:22:05;99490.16;;;-1.21;100.00
10638;BME280;47007;49.252;8.904;2023-03-12T01:22:47;99483.91;;;-1.18;100.00
10638;BME280;47007;49.252;8.904;2023-03-12T01:23:29;99474.91;;;-1.25;100.00
10638;BME280;47007;49.252;8.904;2023-03-12T01:24:12;99480.00;;;-1.24;100.00
10638;BME280;47007;49.252;8.904;2023-03-12T01:24:54;99487.09;;;-1.26;100.00
10638;BME280;47007;49.252;8.904;2023-03-12T01:25:36;99500.22;;;-1.16;100.00
10638;BME280;47007;49.252;8.904;2023-03-12T01:26:17;99482.84;;;-1.27;100.00
10638;BME280;47007;49.252;8.904;2023-03-12T01:26:59;99473.09;;;-1.36;100.00
10638;BME280;47007;49.252;8.904;2023-03-12T01:27:41;99506.34;;;-1.17;100.00
10638;BME280;47007;49.252;8.904;2023-03-12T01:28:23;99495.72;;;-1.25;100.00
10638;BME280;47007;49.252;8.904;2023-03-12T01:29:05;99489.81;;;-1.27;100.00
10638;BME280;47007;49.252;8.904;2023-03-12T01:29:48;99466.97;;;-1.46;100.00
10638;BME280;47007;49.252;8.904;2023-03-12T01:30:30;99495.84;;;-1.27;100.00
10638;BME280;47007;49.252;8.904;2023-03-12T01:31:14;99490.03;;;-1.30;100.00
10638;BME280;47007;49.252;8.904;2023-03-12T01:31:56;99498.91;;;-1.22;100.00
10638;BME280;47007;49.252;8.904;2023-03-12T01:32:38;99480.47;;;-1.30;100.00
10638;BME280;47007;49.252;8.904;2023-03-12T01:33:20;99504.25;;;-1.12;100.00
10638;BME280;47007;49.252;8.904;2023-03-12T01:34:03;99466.84;;;-1.33;100.00
10638;BME280;47007;49.252;8.904;2023-03-12T01:34:44;99502.34;;;-1.10;100.00
10638;BME280;47007;49.252;8.904;2023-03-12T01:35:26;99432.00;;;-1.53;100.00
10638;BME280;47007;49.252;8.904;2023-03-12T01:36:22;99489.94;;;-1.18;100.00
10638;BME280;47007;49.252;8.904;2023-03-12T01:37:05;99508.63;;;-1.01;100.00
10638;BME280;47007;49.252;8.904;2023-03-12T01:37:47;99475.75;;;-1.14;100.00
10638;BME280;47007;49.252;8.904;2023-03-12T01:38:29;99514.88;;;-0.93;100.00
10638;BME280;47007;49.252;8.904;2023-03-12T01:39:11;99510.41;;;-0.91;100.00
10638;BME280;47007;49.252;8.904;2023-03-12T01:39:52;99479.06;;;-1.12;100.00
10638;BME280;47007;49.252;8.904;2023-03-12T01:40:34;99478.34;;;-1.14;100.00
10638;BME280;47007;49.252;8.904;2023-03-12T01:41:17;99511.34;;;-0.92;100.00
10638;BME280;47007;49.252;8.904;2023-03-12T01:41:59;99495.97;;;-0.95;100.00
10638;BME280;47007;49.252;8.904;2023-03-12T01:42:41;99510.41;;;-0.80;100.00
10638;BME280;47007;49.252;8.904;2023-03-12T01:43:29;99499.75;;;-0.88;100.00
10638;BME280;47007;49.252;8.904;2023-03-12T01:44:13;99512.38;;;-0.72;100.00
10638;BME280;47007;49.252;8.904;2023-03-12T01:44:57;99517.59;;;-0.72;100.00
10638;BME280;47007;49.252;8.904;2023-03-12T01:46:03;99511.31;;;-0.69;100.00
10638;BME280;47007;49.252;8.904;2023-03-12T01:46:46;99511.69;;;-0.74;100.00
10638;BME280;47007;49.252;8.904;2023-03-12T01:47:32;99506.97;;;-0.80;100.00
10638;BME280;47007;49.252;8.904;2023-03-12T01:48:19;99507.31;;;-0.85;100.00
10638;BME280;47007;49.252;8.904;2023-03-12T01:49:18;99505.78;;;-0.87;100.00
10638;BME280;47007;49.252;8.904;2023-03-12T01:50:01;99484.84;;;-1.08;100.00
10638;BME280;47007;49.252;8.904;2023-03-12T01:50:44;99488.28;;;-0.96;100.00
10638;BME280;47007;49.252;8.904;2023-03-12T01:51:31;99469.13;;;-1.06;100.00
10638;BME280;47007;49.252;8.904;2023-03-12T01:52:19;99438.16;;;-1.32;100.00
10638;BME280;47007;49.252;8.904;2023-03-12T01:53:05;99487.81;;;-0.90;100.00
10638;BME280;47007;49.252;8.904;2023-03-12T01:53:50;99501.03;;;-0.82;100.00
10638;BME280;47007;49.252;8.904;2023-03-12T01:54:34;99495.97;;;-0.84;100.00
10638;BME280;47007;49.252;8.904;2023-03-12T01:55:18;99502.09;;;-0.85;100.00
10638;BME280;47007;49.252;8.904;2023-03-12T01:56:02;99498.81;;;-0.87;100.00
10638;BME280;47007;49.252;8.904;2023-03-12T01:56:45;99484.28;;;-1.00;100.00
10638;BME280;47007;49.252;8.904;2023-03-12T01:57:52;99500.09;;;-0.92;100.00
10638;BME280;47007;49.252;8.904;2023-03-12T01:58:37;99494.69;;;-1.00;100.00
10638;BME280;47007;49.252;8.904;2023-03-12T01:59:31;99482.47;;;-1.11;100.00
10638;BME280;47007;49.252;8.904;2023-03-12T02:00:21;99501.88;;;-1.04;100.00
10638;BME280;47007;49.252;8.904;2023-03-12T02:01:05;99505.53;;;-1.06;100.00
10638;BME280;47007;49.252;8.904;2023-03-12T02:01:48;99486.50;;;-1.18;100.00
10638;BME280;47007;49.252;8.904;2023-03-12T02:02:31;99468.78;;;-1.24;100.00
10638;BME280;47007;49.252;8.904;2023-03-12T02:03:14;99493.03;;;-1.01;100.00
10638;BME280;47007;49.252;8.904;2023-03-12T02:03:58;99478.69;;;-1.07;100.00
10638;BME280;47007;49.252;8.904;2023-03-12T02:04:42;99490.88;;;-0.96;100.00
10638;BME280;47007;49.252;8.904;2023-03-12T02:05:36;99469.00;;;-1.05;100.00
10638;BME280;47007;49.252;8.904;2023-03-12T02:06:36;99497.00;;;-0.86;100.00
10638;BME280;47007;49.252;8.904;2023-03-12T02:07:18;99491.81;;;-0.86;100.00
10638;BME280;47007;49.252;8.904;2023-03-12T02:08:00;99461.81;;;-1.13;100.00
10638;BME280;47007;49.252;8.904;2023-03-12T02:08:44;99460.97;;;-1.13;100.00
10638;BME280;47007;49.252;8.904;2023-03-12T02:09:27;99460.88;;;-1.12;100.00
10638;BME280;47007;49.252;8.904;2023-03-12T02:10:09;99490.16;;;-0.98;100.00
10638;BME280;47007;49.252;8.904;2023-03-12T02:10:51;99449.03;;;-1.27;100.00
10638;BME280;47007;49.252;8.904;2023-03-12T02:11:33;99457.19;;;-1.20;100.00
10638;BME280;47007;49.252;8.904;2023-03-12T02:12:16;99456.00;;;-1.16;100.00
10638;BME280;47007;49.252;8.904;2023-03-12T02:12:58;99491.25;;;-0.90;100.00
10638;BME280;47007;49.252;8.904;2023-03-12T02:13:40;99469.34;;;-0.98;100.00
10638;BME280;47007;49.252;8.904;2023-03-12T02:14:21;99487.91;;;-0.81;100.00
10638;BME280;47007;49.252;8.904;2023-03-12T02:15:04;99483.31;;;-0.77;100.00
10638;BME280;47007;49.252;8.904;2023-03-12T02:15:46;99489.22;;;-0.75;100.00
10638;BME280;47007;49.252;8.904;2023-03-12T02:16:28;99479.50;;;-0.73;100.00
10638;BME280;47007;49.252;8.904;2023-03-12T02:17:10;99471.84;;;-0.75;100.00
10638;BME280;47007;49.252;8.904;2023-03-12T02:17:52;99465.81;;;-0.75;100.00
10638;BME280;47007;49.252;8.904;2023-03-12T02:18:36;99482.00;;;-0.72;100.00
10638;BME280;47007;49.252;8.904;2023-03-12T02:19:24;99473.63;;;-0.75;100.00
10638;BME280;47007;49.252;8.904;2023-03-12T02:21:12;99469.13;;;-0.84;100.00
10638;BME280;47007;49.252;8.904;2023-03-12T02:21:55;99469.38;;;-0.87;100.00
10638;BME280;47007;49.252;8.904;2023-03-12T02:22:41;99428.69;;;-1.11;100.00
10638;BME280;47007;49.252;8.904;2023-03-12T02:23:37;99442.06;;;-1.04;100.00
10638;BME280;47007;49.252;8.904;2023-03-12T02:24:42;99473.25;;;-0.82;100.00
10638;BME280;47007;49.252;8.904;2023-03-12T02:26:08;99473.84;;;-0.78;100.00
10638;BME280;47007;49.252;8.904;2023-03-12T02:26:52;99467.94;;;-0.80;100.00
10638;BME280;47007;49.252;8.904;2023-03-12T02:27:35;99475.25;;;-0.74;100.00
10638;BME280;47007;49.252;8.904;2023-03-12T02:28:19;99471.59;;;-0.72;100.00
10638;BME280;47007;49.252;8.904;2023-03-12T02:29:04;99463.66;;;-0.70;100.00
10638;BME280;47007;49.252;8.904;2023-03-12T02:29:47;99473.00;;;-0.67;100.00
10638;BME280;47007;49.252;8.904;2023-03-12T02:30:29;99469.47;;;-0.66;100.00
10638;BME280;47007;49.252;8.904;2023-03-12T02:31:14;99478.09;;;-0.66;100.00
10638;BME280;47007;49.252;8.904;2023-03-12T02:31:57;99461.16;;;-0.72;100.00
10638;BME280;47007;49.252;8.904;2023-03-12T02:32:41;99428.94;;;-0.91;100.00
10638;BME280;47007;49.252;8.904;2023-03-12T02:33:24;99403.88;;;-1.03;100.00
10638;BME280;47007;49.252;8.904;2023-03-12T02:34:06;99444.16;;;-0.76;100.00
10638;BME280;47007;49.252;8.904;2023-03-12T02:34:50;99470.97;;;-0.53;100.00
10638;BME280;47007;49.252;8.904;2023-03-12T02:35:32;99474.16;;;-0.49;100.00
10638;BME280;47007;49.252;8.904;2023-03-12T02:36:14;99465.66;;;-0.51;100.00
10638;BME280;47007;49.252;8.904;2023-03-12T02:36:56;99471.69;;;-0.51;100.00
10638;BME280;47007;49.252;8.904;2023-03-12T02:37:54;99460.47;;;-0.62;100.00
10638;BME280;47007;49.252;8.904;2023-03-12T02:39:20;99471.56;;;-0.60;100.00
10638;BME280;47007;49.252;8.904;2023-03-12T02:40:16;99449.50;;;-0.77;100.00
10638;BME280;47007;49.252;8.904;2023-03-12T02:41:02;99469.47;;;-0.66;100.00
10638;BME280;47007;49.252;8.904;2023-03-12T02:41:49;99471.72;;;-0.62;100.00
10638;BME280;47007;49.252;8.904;2023-03-12T02:42:34;99437.44;;;-0.89;100.00
10638;BME280;47007;49.252;8.904;2023-03-12T02:43:20;99476.41;;;-0.56;100.00
10638;BME280;47007;49.252;8.904;2023-03-12T02:44:06;99467.44;;;-0.52;100.00
10638;BME280;47007;49.252;8.904;2023-03-12T02:44:50;99457.50;;;-0.58;100.00
10638;BME280;47007;49.252;8.904;2023-03-12T02:45:33;99463.72;;;-0.49;100.00
10638;BME280;47007;49.252;8.904;2023-03-12T02:46:16;99467.41;;;-0.41;100.00
10638;BME280;47007;49.252;8.904;2023-03-12T02:47:00;99472.50;;;-0.39;100.00
10638;BME280;47007;49.252;8.904;2023-03-12T02:47:41;99435.28;;;-0.62;100.00
10638;BME280;47007;49.252;8.904;2023-03-12T02:48:23;99350.94;;;-1.14;100.00
10638;BME280;47007;49.252;8.904;2023-03-12T02:49:06;99455.13;;;-0.50;100.00
10638;BME280;47007;49.252;8.904;2023-03-12T02:49:49;99473.56;;;-0.42;100.00
10638;BME280;47007;49.252;8.904;2023-03-12T02:50:30;99460.44;;;-0.51;100.00
10638;BME280;47007;49.252;8.904;2023-03-12T02:51:12;99471.53;;;-0.38;100.00
10638;BME280;47007;49.252;8.904;2023-03-12T02:51:55;99473.06;;;-0.36;100.00
10638;BME280;47007;49.252;8.904;2023-03-12T02:52:37;99468.09;;;-0.39;100.00
10638;BME280;47007;49.252;8.904;2023-03-12T02:53:18;99383.84;;;-0.81;100.00
10638;BME280;47007;49.252;8.904;2023-03-12T02:54:00;99465.59;;;-0.29;100.00
10638;BME280;47007;49.252;8.904;2023-03-12T02:54:42;99457.91;;;-0.30;100.00
10638;BME280;47007;49.252;8.904;2023-03-12T02:55:24;99384.06;;;-0.73;100.00
10638;BME280;47007;49.252;8.904;2023-03-12T02:56:06;99464.97;;;-0.21;100.00
10638;BME280;47007;49.252;8.904;2023-03-12T02:56:48;99467.31;;;-0.18;100.00
10638;BME280;47007;49.252;8.904;2023-03-12T02:57:31;99462.81;;;-0.16;100.00
10638;BME280;47007;49.252;8.904;2023-03-12T02:58:13;99397.75;;;-0.59;100.00
10638;BME280;47007;49.252;8.904;2023-03-12T02:58:55;99468.50;;;-0.22;100.00
10638;BME280;47007;49.252;8.904;2023-03-12T02:59:37;99470.56;;;-0.37;100.00
10638;BME280;47007;49.252;8.904;2023-03-12T03:00:21;99457.69;;;-0.39;100.00
10638;BME280;47007;49.252;8.904;2023-03-12T03:01:05;99468.34;;;-0.42;100.00
10638;BME280;47007;49.252;8.904;2023-03-12T03:01:51;99470.47;;;-0.47;100.00
10638;BME280;47007;49.252;8.904;2023-03-12T03:02:33;99424.03;;;-0.74;100.00
10638;BME280;47007;49.252;8.904;2023-03-12T03:03:15;99457.97;;;-0.53;100.00
10638;BME280;47007;49.252;8.904;2023-03-12T03:03:56;99460.56;;;-0.53;100.00
10638;BME280;47007;49.252;8.904;2023-03-12T03:04:38;99430.44;;;-0.66;100.00
10638;BME280;47007;49.252;8.904;2023-03-12T03:05:20;99449.31;;;-0.53;100.00
10638;BME280;47007;49.252;8.904;2023-03-12T03:06:02;99464.09;;;-0.43;100.00
10638;BME280;47007;49.252;8.904;2023-03-12T03:06:45;99454.63;;;-0.44;100.00
10638;BME280;47007;49.252;8.904;2023-03-12T03:07:28;99447.53;;;-0.42;100.00
10638;BME280;47007;49.252;8.904;2023-03-12T03:08:11;99458.97;;;-0.33;100.00
10638;BME280;47007;49.252;8.904;2023-03-12T03:08:53;99449.97;;;-0.29;100.00
10638;BME280;47007;49.252;8.904;2023-03-12T03:09:34;99437.69;;;-0.38;100.00
10638;BME280;47007;49.252;8.904;2023-03-12T03:10:16;99459.44;;;-0.28;100.00
10638;BME280;47007;49.252;8.904;2023-03-12T03:10:58;99454.59;;;-0.32;100.00
10638;BME280;47007;49.252;8.904;2023-03-12T03:11:43;99452.09;;;-0.34;100.00
10638;BME280;47007;49.252;8.904;2023-03-12T03:12:25;99451.66;;;-0.39;100.00
10638;BME280;47007;49.252;8.904;2023-03-12T03:13:06;99443.13;;;-0.41;100.00
10638;BME280;47007;49.252;8.904;2023-03-12T03:13:49;99472.84;;;-0.44;100.00
10638;BME280;47007;49.252;8.904;2023-03-12T03:14:31;99461.00;;;-0.48;100.00
10638;BME280;47007;49.252;8.904;2023-03-12T03:15:13;99454.41;;;-0.52;100.00
10638;BME280;47007;49.252;8.904;2023-03-12T03:15:55;99462.47;;;-0.55;100.00
10638;BME280;47007;49.252;8.904;2023-03-12T03:16:38;99440.94;;;-0.68;100.00
10638;BME280;47007;49.252;8.904;2023-03-12T03:17:20;99460.09;;;-0.58;100.00
10638;BME280;47007;49.252;8.904;2023-03-12T03:18:04;99451.34;;;-0.68;100.00
10638;BME280;47007;49.252;8.904;2023-03-12T03:18:45;99427.84;;;-0.78;100.00
10638;BME280;47007;49.252;8.904;2023-03-12T03:19:27;99434.00;;;-0.79;100.00
10638;BME280;47007;49.252;8.904;2023-03-12T03:20:09;99445.31;;;-0.68;100.00
10638;BME280;47007;49.252;8.904;2023-03-12T03:21:03;99454.44;;;-0.63;100.00
10638;BME280;47007;49.252;8.904;2023-03-12T03:21:46;99451.84;;;-0.63;100.00
10638;BME280;47007;49.252;8.904;2023-03-12T03:22:28;99452.19;;;-0.67;100.00
10638;BME280;47007;49.252;8.904;2023-03-12T03:23:10;99450.41;;;-0.67;100.00
10638;BME280;47007;49.252;8.904;2023-03-12T03:23:52;99458.44;;;-0.59;100.00
10638;BME280;47007;49.252;8.904;2023-03-12T03:24:33;99440.13;;;-0.68;100.00
10638;BME280;47007;49.252;8.904;2023-03-12T03:25:16;99441.28;;;-0.61;100.00
10638;BME280;47007;49.252;8.904;2023-03-12T03:25:59;99429.59;;;-0.67;100.00
10638;BME280;47007;49.252;8.904;2023-03-12T03:26:41;99459.81;;;-0.44;100.00
10638;BME280;47007;49.252;8.904;2023-03-12T03:27:23;99433.81;;;-0.55;100.00
10638;BME280;47007;49.252;8.904;2023-03-12T03:28:05;99456.13;;;-0.30;100.00
10638;BME280;47007;49.252;8.904;2023-03-12T03:28:47;99461.09;;;-0.27;100.00
10638;BME280;47007;49.252;8.904;2023-03-12T03:29:28;99464.41;;;-0.25;100.00
10638;BME280;47007;49.252;8.904;2023-03-12T03:30:10;99458.38;;;-0.25;100.00
10638;BME280;47007;49.252;8.904;2023-03-12T03:30:57;99462.03;;;-0.28;100.00
10638;BME280;47007;49.252;8.904;2023-03-12T03:31:44;99463.56;;;-0.25;100.00
10638;BME280;47007;49.252;8.904;2023-03-12T03:32:27;99448.66;;;-0.34;100.00
10638;BME280;47007;49.252;8.904;2023-03-12T03:33:08;99437.34;;;-0.45;100.00
10638;BME280;47007;49.252;8.904;2023-03-12T03:33:50;99449.84;;;-0.27;100.00
10638;BME280;47007;49.252;8.904;2023-03-12T03:34:32;99457.84;;;-0.19;100.00
10638;BME280;47007;49.252;8.904;2023-03-12T03:35:14;99453.13;;;-0.14;100.00
10638;BME280;47007;49.252;8.904;2023-03-12T03:35:57;99453.56;;;-0.09;100.00
10638;BME280;47007;49.252;8.904;2023-03-12T03:36:41;99459.34;;;-0.06;100.00
10638;BME280;47007;49.252;8.904;2023-03-12T03:37:26;99445.75;;;-0.09;100.00
10638;BME280;47007;49.252;8.904;2023-03-12T03:38:08;99467.94;;;0.06;100.00
10638;BME280;47007;49.252;8.904;2023-03-12T03:38:50;99461.66;;;0.09;100.00
10638;BME280;47007;49.252;8.904;2023-03-12T03:39:32;99450.78;;;0.04;100.00
10638;BME280;47007;49.252;8.904;2023-03-12T03:40:15;99460.13;;;0.06;100.00
10638;BME280;47007;49.252;8.904;2023-03-12T03:40:57;99450.22;;;0.00;100.00
10638;BME280;47007;49.252;8.904;2023-03-12T03:41:39;99402.50;;;-0.32;100.00
10638;BME280;47007;49.252;8.904;2023-03-12T03:42:21;99431.81;;;-0.19;100.00
10638;BME280;47007;49.252;8.904;2023-03-12T03:43:02;99453.31;;;-0.06;100.00
10638;BME280;47007;49.252;8.904;2023-03-12T03:43:44;99446.38;;;-0.17;100.00
10638;BME280;47007;49.252;8.904;2023-03-12T03:44:27;99423.47;;;-0.34;100.00
10638;BME280;47007;49.252;8.904;2023-03-12T03:45:09;99453.66;;;-0.11;100.00
10638;BME280;47007;49.252;8.904;2023-03-12T03:46:01;99459.47;;;-0.07;100.00
10638;BME280;47007;49.252;8.904;2023-03-12T03:46:46;99450.22;;;0.00;100.00
10638;BME280;47007;49.252;8.904;2023-03-12T03:47:28;99452.44;;;0.05;100.00
10638;BME280;47007;49.252;8.904;2023-03-12T03:48:11;99419.94;;;-0.12;100.00